sensor_id;sensor_type;location;lat;lon;timestamp;P1;durP1;ratioP1;P2;durP2;ratioP2
56581;SDS011;42463;52.214;21.238;2023-08-30T00:00:40;19.60;;;16.70;;
56581;SDS011;42463;52.214;21.238;2023-08-30T00:03:05;20.70;;;17.00;;
56581;SDS011;42463;52.214;21.238;2023-08-30T00:05:12;21.90;;;17.20;;
56581;SDS011;42463;52.214;21.238;2023-08-30T00:07:18;23.00;;;18.80;;
56581;SDS011;42463;52.214;21.238;2023-08-30T00:09:24;24.70;;;18.90;;
56581;SDS011;42463;52.214;21.238;2023-08-30T00:11:30;23.80;;;19.50;;
56581;SDS011;42463;52.214;21.238;2023-08-30T00:13:36;22.90;;;19.40;;
56581;SDS011;42463;52.214;21.238;2023-08-30T00:15:41;23.80;;;19.90;;
56581;SDS011;42463;52.214;21.238;2023-08-30T00:17:47;23.30;;;20.60;;
56581;SDS011;42463;52.214;21.238;2023-08-30T00:19:54;27.00;;;21.20;;
56581;SDS011;42463;52.214;21.238;2023-08-30T00:22:00;27.90;;;21.30;;
56581;SDS011;42463;52.214;21.238;2023-08-30T00:24:06;30.30;;;22.90;;
56581;SDS011;42463;52.214;21.238;2023-08-30T00:26:12;28.30;;;22.60;;
56581;SDS011;42463;52.214;21.238;2023-08-30T00:28:18;29.40;;;23.20;;
56581;SDS011;42463;52.214;21.238;2023-08-30T00:30:24;27.40;;;22.00;;
56581;SDS011;42463;52.214;21.238;2023-08-30T00:32:30;30.00;;;22.90;;
56581;SDS011;42463;52.214;21.238;2023-08-30T00:34:35;27.10;;;23.10;;
56581;SDS011;42463;52.214;21.238;2023-08-30T00:36:41;27.30;;;22.80;;
56581;SDS011;42463;52.214;21.238;2023-08-30T00:38:47;31.80;;;24.80;;
56581;SDS011;42463;52.214;21.238;2023-08-30T00:40:53;28.70;;;22.20;;
56581;SDS011;42463;52.214;21.238;2023-08-30T00:42:59;29.00;;;23.70;;
56581;SDS011;42463;52.214;21.238;2023-08-30T00:45:05;30.10;;;23.40;;
56581;SDS011;42463;52.214;21.238;2023-08-30T00:47:12;27.90;;;23.20;;
56581;SDS011;42463;52.214;21.238;2023-08-30T00:49:18;32.00;;;24.40;;
56581;SDS011;42463;52.214;21.238;2023-08-30T00:51:24;30.40;;;24.20;;
56581;SDS011;42463;52.214;21.238;2023-08-30T00:53:30;31.00;;;25.00;;
56581;SDS011;42463;52.214;21.238;2023-08-30T00:55:36;30.10;;;24.30;;
56581;SDS011;42463;52.214;21.238;2023-08-30T00:57:43;31.70;;;24.60;;
56581;SDS011;42463;52.214;21.238;2023-08-30T00:59:49;29.00;;;25.10;;
56581;SDS011;42463;52.214;21.238;2023-08-30T01:01:58;31.30;;;25.40;;
56581;SDS011;42463;52.214;21.238;2023-08-30T01:04:05;31.70;;;24.90;;
56581;SDS011;42463;52.214;21.238;2023-08-30T01:06:10;31.10;;;25.00;;
56581;SDS011;42463;52.214;21.238;2023-08-30T01:08:16;29.10;;;23.50;;
56581;SDS011;42463;52.214;21.238;2023-08-30T01:10:24;33.30;;;24.20;;
56581;SDS011;42463;52.214;21.238;2023-08-30T01:12:45;33.00;;;25.20;;
56581;SDS011;42463;52.214;21.238;2023-08-30T01:14:55;33.20;;;24.20;;
56581;SDS011;42463;52.214;21.238;2023-08-30T01:17:08;31.70;;;23.30;;
56581;SDS011;42463;52.214;21.238;2023-08-30T01:19:25;33.40;;;24.60;;
56581;SDS011;42463;52.214;21.238;2023-08-30T01:21:46;33.00;;;25.20;;
56581;SDS011;42463;52.214;21.238;2023-08-30T01:23:59;29.80;;;23.80;;
56581;SDS011;42463;52.214;21.238;2023-08-30T01:26:09;34.90;;;24.50;;
56581;SDS011;42463;52.214;21.238;2023-08-30T01:28:19;35.40;;;25.60;;
56581;SDS011;42463;52.214;21.238;2023-08-30T01:30:29;33.70;;;24.60;;
56581;SDS011;42463;52.214;21.238;2023-08-30T01:32:36;33.20;;;24.40;;
56581;SDS011;42463;52.214;21.238;2023-08-30T01:34:43;32.70;;;24.60;;
56581;SDS011;42463;52.214;21.238;2023-08-30T01:36:50;35.40;;;25.30;;
56581;SDS011;42463;52.214;21.238;2023-08-30T01:38:56;33.70;;;24.70;;
56581;SDS011;42463;52.214;21.238;2023-08-30T01:41:04;37.00;;;25.40;;
56581;SDS011;42463;52.214;21.238;2023-08-30T01:43:10;35.80;;;26.00;;
56581;SDS011;42463;52.214;21.238;2023-08-30T01:45:17;32.80;;;23.80;;
56581;SDS011;42463;52.214;21.238;2023-08-30T01:47:25;34.30;;;25.00;;
56581;SDS011;42463;52.214;21.238;2023-08-30T01:49:32;34.30;;;25.20;;
56581;SDS011;42463;52.214;21.238;2023-08-30T01:51:40;36.10;;;25.40;;
56581;SDS011;42463;52.214;21.238;2023-08-30T01:53:46;34.90;;;25.60;;
56581;SDS011;42463;52.214;21.238;2023-08-30T01:55:53;35.60;;;25.80;;
56581;SDS011;42463;52.214;21.238;2023-08-30T01:57:59;33.60;;;25.30;;
56581;SDS011;42463;52.214;21.238;2023-08-30T02:00:07;35.10;;;25.10;;
56581;SDS011;42463;52.214;21.238;2023-08-30T02:02:23;34.90;;;25.10;;
56581;SDS011;42463;52.214;21.238;2023-08-30T02:04:32;36.70;;;25.20;;
56581;SDS011;42463;52.214;21.238;2023-08-30T02:06:39;34.50;;;25.40;;
56581;SDS011;42463;52.214;21.238;2023-08-30T02:08:54;33.10;;;25.00;;
56581;SDS011;42463;52.214;21.238;2023-08-30T02:11:07;37.10;;;24.90;;
56581;SDS011;42463;52.214;21.238;2023-08-30T02:13:17;40.00;;;25.00;;
56581;SDS011;42463;52.214;21.238;2023-08-30T02:15:29;38.20;;;25.50;;
56581;SDS011;42463;52.214;21.238;2023-08-30T02:17:37;41.10;;;26.50;;
56581;SDS011;42463;52.214;21.238;2023-08-30T02:19:44;39.90;;;25.70;;
56581;SDS011;42463;52.214;21.238;2023-08-30T02:21:54;39.50;;;25.90;;
56581;SDS011;42463;52.214;21.238;2023-08-30T02:23:59;44.40;;;27.80;;
56581;SDS011;42463;52.214;21.238;2023-08-30T02:26:07;40.30;;;26.10;;
56581;SDS011;42463;52.214;21.238;2023-08-30T02:28:13;39.30;;;25.70;;
56581;SDS011;42463;52.214;21.238;2023-08-30T02:30:19;38.30;;;25.40;;
56581;SDS011;42463;52.214;21.238;2023-08-30T02:32:25;36.00;;;25.10;;
56581;SDS011;42463;52.214;21.238;2023-08-30T02:34:31;36.70;;;24.70;;
56581;SDS011;42463;52.214;21.238;2023-08-30T02:36:38;35.80;;;23.80;;
56581;SDS011;42463;52.214;21.238;2023-08-30T02:38:44;32.00;;;23.00;;
56581;SDS011;42463;52.214;21.238;2023-08-30T02:40:52;30.50;;;22.60;;
56581;SDS011;42463;52.214;21.238;2023-08-30T02:42:57;34.90;;;22.90;;
56581;SDS011;42463;52.214;21.238;2023-08-30T02:45:03;35.00;;;22.90;;
56581;SDS011;42463;52.214;21.238;2023-08-30T02:47:10;35.40;;;22.20;;
56581;SDS011;42463;52.214;21.238;2023-08-30T02:49:16;33.30;;;22.50;;
56581;SDS011;42463;52.214;21.238;2023-08-30T02:51:22;30.40;;;21.60;;
56581;SDS011;42463;52.214;21.238;2023-08-30T02:53:27;31.70;;;21.30;;
56581;SDS011;42463;52.214;21.238;2023-08-30T02:55:33;33.50;;;22.70;;
56581;SDS011;42463;52.214;21.238;2023-08-30T02:57:39;31.90;;;22.30;;
56581;SDS011;42463;52.214;21.238;2023-08-30T02:59:45;28.10;;;21.30;;
56581;SDS011;42463;52.214;21.238;2023-08-30T03:01:51;32.00;;;20.90;;
56581;SDS011;42463;52.214;21.238;2023-08-30T03:03:57;31.10;;;20.60;;
56581;SDS011;42463;52.214;21.238;2023-08-30T03:06:03;30.50;;;20.90;;
56581;SDS011;42463;52.214;21.238;2023-08-30T03:08:09;32.10;;;22.20;;
56581;SDS011;42463;52.214;21.238;2023-08-30T03:10:15;31.90;;;21.20;;
56581;SDS011;42463;52.214;21.238;2023-08-30T03:12:21;31.40;;;21.50;;
56581;SDS011;42463;52.214;21.238;2023-08-30T03:14:27;31.50;;;21.10;;
56581;SDS011;42463;52.214;21.238;2023-08-30T03:16:33;29.50;;;20.80;;
56581;SDS011;42463;52.214;21.238;2023-08-30T03:18:39;31.00;;;20.30;;
56581;SDS011;42463;52.214;21.238;2023-08-30T03:20:47;34.80;;;21.70;;
56581;SDS011;42463;52.214;21.238;2023-08-30T03:22:53;30.50;;;21.00;;
56581;SDS011;42463;52.214;21.238;2023-08-30T03:25:03;33.60;;;22.00;;
56581;SDS011;42463;52.214;21.238;2023-08-30T03:27:09;32.70;;;20.50;;
56581;SDS011;42463;52.214;21.238;2023-08-30T03:29:15;32.20;;;20.60;;
56581;SDS011;42463;52.214;21.238;2023-08-30T03:31:21;33.00;;;20.80;;
56581;SDS011;42463;52.214;21.238;2023-08-30T03:33:28;30.40;;;20.80;;
56581;SDS011;42463;52.214;21.238;2023-08-30T03:35:34;31.10;;;20.80;;
56581;SDS011;42463;52.214;21.238;2023-08-30T03:37:42;30.50;;;21.40;;
56581;SDS011;42463;52.214;21.238;2023-08-30T03:39:48;32.30;;;21.20;;
56581;SDS011;42463;52.214;21.238;2023-08-30T03:41:54;33.70;;;20.70;;
56581;SDS011;42463;52.214;21.238;2023-08-30T03:44:00;34.10;;;21.60;;
56581;SDS011;42463;52.214;21.238;2023-08-30T03:46:05;29.50;;;21.10;;
56581;SDS011;42463;52.214;21.238;2023-08-30T03:48:12;31.60;;;20.40;;
56581;SDS011;42463;52.214;21.238;2023-08-30T03:50:18;30.00;;;20.30;;
56581;SDS011;42463;52.214;21.238;2023-08-30T03:52:23;31.20;;;20.30;;
56581;SDS011;42463;52.214;21.238;2023-08-30T03:54:29;34.20;;;21.20;;
56581;SDS011;42463;52.214;21.238;2023-08-30T03:56:35;30.80;;;20.20;;
56581;SDS011;42463;52.214;21.238;2023-08-30T03:58:42;33.60;;;20.90;;
56581;SDS011;42463;52.214;21.238;2023-08-30T04:00:48;31.80;;;20.10;;
56581;SDS011;42463;52.214;21.238;2023-08-30T04:02:54;29.70;;;19.90;;
56581;SDS011;42463;52.214;21.238;2023-08-30T04:05:00;32.10;;;19.30;;
56581;SDS011;42463;52.214;21.238;2023-08-30T04:07:06;32.60;;;19.20;;
56581;SDS011;42463;52.214;21.238;2023-08-30T04:09:12;33.10;;;20.00;;
56581;SDS011;42463;52.214;21.238;2023-08-30T04:11:17;29.30;;;19.60;;
56581;SDS011;42463;52.214;21.238;2023-08-30T04:13:23;32.60;;;20.10;;
56581;SDS011;42463;52.214;21.238;2023-08-30T04:15:31;27.40;;;19.70;;
56581;SDS011;42463;52.214;21.238;2023-08-30T04:17:38;27.60;;;18.70;;
56581;SDS011;42463;52.214;21.238;2023-08-30T04:19:44;31.00;;;20.10;;
56581;SDS011;42463;52.214;21.238;2023-08-30T04:21:49;28.30;;;19.00;;
56581;SDS011;42463;52.214;21.238;2023-08-30T04:23:56;29.00;;;19.70;;
56581;SDS011;42463;52.214;21.238;2023-08-30T04:26:02;30.60;;;19.70;;
56581;SDS011;42463;52.214;21.238;2023-08-30T04:28:09;27.10;;;18.10;;
56581;SDS011;42463;52.214;21.238;2023-08-30T04:30:15;29.70;;;19.60;;
56581;SDS011;42463;52.214;21.238;2023-08-30T04:32:21;29.50;;;18.90;;
56581;SDS011;42463;52.214;21.238;2023-08-30T04:34:27;29.40;;;18.80;;
56581;SDS011;42463;52.214;21.238;2023-08-30T04:36:34;31.00;;;19.80;;
56581;SDS011;42463;52.214;21.238;2023-08-30T04:38:40;27.30;;;19.80;;
56581;SDS011;42463;52.214;21.238;2023-08-30T04:40:46;29.00;;;20.30;;
56581;SDS011;42463;52.214;21.238;2023-08-30T04:42:52;31.50;;;21.10;;
56581;SDS011;42463;52.214;21.238;2023-08-30T04:44:58;31.60;;;20.90;;
56581;SDS011;42463;52.214;21.238;2023-08-30T04:47:05;34.80;;;20.80;;
56581;SDS011;42463;52.214;21.238;2023-08-30T04:49:11;30.60;;;20.70;;
56581;SDS011;42463;52.214;21.238;2023-08-30T04:51:18;28.50;;;20.10;;
56581;SDS011;42463;52.214;21.238;2023-08-30T04:53:24;31.70;;;21.20;;
56581;SDS011;42463;52.214;21.238;2023-08-30T04:55:30;32.80;;;21.70;;
56581;SDS011;42463;52.214;21.238;2023-08-30T04:57:36;34.80;;;20.60;;
56581;SDS011;42463;52.214;21.238;2023-08-30T04:59:43;32.90;;;22.80;;
56581;SDS011;42463;52.214;21.238;2023-08-30T05:01:49;32.40;;;22.40;;
56581;SDS011;42463;52.214;21.238;2023-08-30T05:03:56;34.50;;;21.90;;
56581;SDS011;42463;52.214;21.238;2023-08-30T05:06:03;34.80;;;21.50;;
56581;SDS011;42463;52.214;21.238;2023-08-30T05:08:09;37.10;;;23.00;;
56581;SDS011;42463;52.214;21.238;2023-08-30T05:10:15;29.00;;;19.70;;
56581;SDS011;42463;52.214;21.238;2023-08-30T05:12:22;32.50;;;21.00;;
56581;SDS011;42463;52.214;21.238;2023-08-30T05:14:29;30.80;;;21.90;;
56581;SDS011;42463;52.214;21.238;2023-08-30T05:16:36;29.90;;;20.80;;
56581;SDS011;42463;52.214;21.238;2023-08-30T05:18:43;33.40;;;23.00;;
56581;SDS011;42463;52.214;21.238;2023-08-30T05:20:51;33.80;;;22.70;;
56581;SDS011;42463;52.214;21.238;2023-08-30T05:22:57;36.90;;;24.10;;
56581;SDS011;42463;52.214;21.238;2023-08-30T05:25:04;36.50;;;24.00;;
56581;SDS011;42463;52.214;21.238;2023-08-30T05:27:11;33.30;;;24.10;;
56581;SDS011;42463;52.214;21.238;2023-08-30T05:29:18;36.70;;;24.40;;
56581;SDS011;42463;52.214;21.238;2023-08-30T05:31:24;38.10;;;24.60;;
56581;SDS011;42463;52.214;21.238;2023-08-30T05:33:39;34.30;;;23.50;;
56581;SDS011;42463;52.214;21.238;2023-08-30T05:36:05;37.10;;;25.40;;
56581;SDS011;42463;52.214;21.238;2023-08-30T05:40:51;36.60;;;24.40;;
56581;SDS011;42463;52.214;21.238;2023-08-30T05:42:59;37.80;;;25.00;;
56581;SDS011;42463;52.214;21.238;2023-08-30T05:45:07;37.30;;;23.60;;
56581;SDS011;42463;52.214;21.238;2023-08-30T05:47:13;35.10;;;23.70;;
56581;SDS011;42463;52.214;21.238;2023-08-30T05:49:20;36.20;;;23.90;;
56581;SDS011;42463;52.214;21.238;2023-08-30T05:51:27;37.10;;;24.50;;
56581;SDS011;42463;52.214;21.238;2023-08-30T05:53:33;36.50;;;23.30;;
56581;SDS011;42463;52.214;21.238;2023-08-30T05:55:39;38.00;;;24.30;;
56581;SDS011;42463;52.214;21.238;2023-08-30T05:57:45;38.70;;;23.70;;
56581;SDS011;42463;52.214;21.238;2023-08-30T05:59:51;40.40;;;25.10;;
56581;SDS011;42463;52.214;21.238;2023-08-30T06:01:57;37.00;;;24.10;;
56581;SDS011;42463;52.214;21.238;2023-08-30T06:04:04;37.80;;;24.60;;
56581;SDS011;42463;52.214;21.238;2023-08-30T06:06:10;37.90;;;25.10;;
56581;SDS011;42463;52.214;21.238;2023-08-30T06:08:16;40.00;;;25.90;;
56581;SDS011;42463;52.214;21.238;2023-08-30T06:10:23;39.40;;;25.20;;
56581;SDS011;42463;52.214;21.238;2023-08-30T06:12:28;39.60;;;24.80;;
56581;SDS011;42463;52.214;21.238;2023-08-30T06:14:34;41.40;;;24.60;;
56581;SDS011;42463;52.214;21.238;2023-08-30T06:16:41;40.10;;;25.00;;
56581;SDS011;42463;52.214;21.238;2023-08-30T06:18:47;39.30;;;25.00;;
56581;SDS011;42463;52.214;21.238;2023-08-30T06:20:53;37.30;;;24.70;;
56581;SDS011;42463;52.214;21.238;2023-08-30T06:23:02;41.90;;;25.60;;
56581;SDS011;42463;52.214;21.238;2023-08-30T06:25:08;37.80;;;25.30;;
56581;SDS011;42463;52.214;21.238;2023-08-30T06:27:14;42.20;;;25.80;;
56581;SDS011;42463;52.214;21.238;2023-08-30T06:29:21;38.40;;;24.50;;
56581;SDS011;42463;52.214;21.238;2023-08-30T06:31:27;39.00;;;25.30;;
56581;SDS011;42463;52.214;21.238;2023-08-30T06:33:35;39.20;;;26.00;;
56581;SDS011;42463;52.214;21.238;2023-08-30T06:35:42;39.20;;;25.20;;
56581;SDS011;42463;52.214;21.238;2023-08-30T06:37:48;38.80;;;25.50;;
56581;SDS011;42463;52.214;21.238;2023-08-30T06:39:54;38.30;;;25.10;;
56581;SDS011;42463;52.214;21.238;2023-08-30T06:42:00;41.40;;;24.80;;
56581;SDS011;42463;52.214;21.238;2023-08-30T06:44:06;38.10;;;25.60;;
56581;SDS011;42463;52.214;21.238;2023-08-30T06:46:12;37.20;;;24.70;;
56581;SDS011;42463;52.214;21.238;2023-08-30T06:48:18;34.30;;;23.00;;
56581;SDS011;42463;52.214;21.238;2023-08-30T06:50:25;36.50;;;22.30;;
56581;SDS011;42463;52.214;21.238;2023-08-30T06:52:31;36.60;;;23.80;;
56581;SDS011;42463;52.214;21.238;2023-08-30T06:54:38;34.40;;;23.80;;
56581;SDS011;42463;52.214;21.238;2023-08-30T06:56:47;37.20;;;24.50;;
56581;SDS011;42463;52.214;21.238;2023-08-30T06:59:02;33.50;;;22.30;;
56581;SDS011;42463;52.214;21.238;2023-08-30T07:01:08;32.30;;;21.90;;
56581;SDS011;42463;52.214;21.238;2023-08-30T07:03:15;34.00;;;22.00;;
56581;SDS011;42463;52.214;21.238;2023-08-30T07:05:22;29.70;;;21.60;;
56581;SDS011;42463;52.214;21.238;2023-08-30T07:07:29;37.50;;;21.70;;
56581;SDS011;42463;52.214;21.238;2023-08-30T07:09:35;32.20;;;21.70;;
56581;SDS011;42463;52.214;21.238;2023-08-30T07:11:42;31.00;;;22.20;;
56581;SDS011;42463;52.214;21.238;2023-08-30T07:13:49;34.00;;;22.80;;
56581;SDS011;42463;52.214;21.238;2023-08-30T07:15:55;32.40;;;22.50;;
56581;SDS011;42463;52.214;21.238;2023-08-30T07:18:01;31.50;;;22.30;;
56581;SDS011;42463;52.214;21.238;2023-08-30T07:20:09;30.30;;;21.30;;
56581;SDS011;42463;52.214;21.238;2023-08-30T07:22:16;30.30;;;21.50;;
56581;SDS011;42463;52.214;21.238;2023-08-30T07:24:23;30.10;;;21.80;;
56581;SDS011;42463;52.214;21.238;2023-08-30T07:26:29;29.30;;;21.00;;
56581;SDS011;42463;52.214;21.238;2023-08-30T07:28:36;30.60;;;21.90;;
56581;SDS011;42463;52.214;21.238;2023-08-30T07:30:42;31.60;;;22.00;;
56581;SDS011;42463;52.214;21.238;2023-08-30T07:32:49;29.30;;;20.10;;
56581;SDS011;42463;52.214;21.238;2023-08-30T07:34:55;30.10;;;20.90;;
56581;SDS011;42463;52.214;21.238;2023-08-30T07:37:01;31.00;;;21.00;;
56581;SDS011;42463;52.214;21.238;2023-08-30T07:39:07;33.60;;;21.20;;
56581;SDS011;42463;52.214;21.238;2023-08-30T07:41:13;30.80;;;21.00;;
56581;SDS011;42463;52.214;21.238;2023-08-30T07:43:20;32.30;;;20.10;;
56581;SDS011;42463;52.214;21.238;2023-08-30T07:45:27;33.40;;;21.30;;
56581;SDS011;42463;52.214;21.238;2023-08-30T07:47:33;31.70;;;20.60;;
56581;SDS011;42463;52.214;21.238;2023-08-30T07:49:39;33.70;;;20.90;;
56581;SDS011;42463;52.214;21.238;2023-08-30T07:51:45;32.80;;;20.20;;
56581;SDS011;42463;52.214;21.238;2023-08-30T07:53:51;31.70;;;21.40;;
56581;SDS011;42463;52.214;21.238;2023-08-30T07:55:57;33.90;;;21.30;;
56581;SDS011;42463;52.214;21.238;2023-08-30T07:58:04;33.70;;;22.10;;
56581;SDS011;42463;52.214;21.238;2023-08-30T08:00:12;37.60;;;22.30;;
56581;SDS011;42463;52.214;21.238;2023-08-30T08:02:21;30.50;;;19.80;;
56581;SDS011;42463;52.214;21.238;2023-08-30T08:04:28;34.00;;;21.10;;
56581;SDS011;42463;52.214;21.238;2023-08-30T08:06:34;35.30;;;21.90;;
56581;SDS011;42463;52.214;21.238;2023-08-30T08:08:39;33.80;;;20.90;;
56581;SDS011;42463;52.214;21.238;2023-08-30T08:10:45;32.90;;;21.10;;
56581;SDS011;42463;52.214;21.238;2023-08-30T08:12:51;33.10;;;20.40;;
56581;SDS011;42463;52.214;21.238;2023-08-30T08:14:58;30.80;;;19.00;;
56581;SDS011;42463;52.214;21.238;2023-08-30T08:17:05;30.30;;;18.10;;
56581;SDS011;42463;52.214;21.238;2023-08-30T08:19:12;25.10;;;17.40;;
56581;SDS011;42463;52.214;21.238;2023-08-30T08:21:18;28.40;;;17.30;;
56581;SDS011;42463;52.214;21.238;2023-08-30T08:23:24;24.20;;;16.20;;
56581;SDS011;42463;52.214;21.238;2023-08-30T08:25:31;27.70;;;16.40;;
56581;SDS011;42463;52.214;21.238;2023-08-30T08:27:37;27.20;;;17.10;;
56581;SDS011;42463;52.214;21.238;2023-08-30T08:29:43;29.70;;;19.10;;
56581;SDS011;42463;52.214;21.238;2023-08-30T08:31:49;31.20;;;19.90;;
56581;SDS011;42463;52.214;21.238;2023-08-30T08:34:07;27.60;;;18.10;;
56581;SDS011;42463;52.214;21.238;2023-08-30T08:36:15;29.70;;;19.30;;
56581;SDS011;42463;52.214;21.238;2023-08-30T08:38:21;31.50;;;19.90;;
56581;SDS011;42463;52.214;21.238;2023-08-30T08:40:27;32.60;;;20.60;;
56581;SDS011;42463;52.214;21.238;2023-08-30T08:42:33;29.10;;;19.70;;
56581;SDS011;42463;52.214;21.238;2023-08-30T08:44:39;30.30;;;19.70;;
56581;SDS011;42463;52.214;21.238;2023-08-30T08:46:48;29.60;;;18.70;;
56581;SDS011;42463;52.214;21.238;2023-08-30T08:48:55;26.50;;;18.30;;
56581;SDS011;42463;52.214;21.238;2023-08-30T08:51:03;28.10;;;19.20;;
56581;SDS011;42463;52.214;21.238;2023-08-30T08:53:09;29.60;;;20.10;;
56581;SDS011;42463;52.214;21.238;2023-08-30T08:55:16;27.50;;;19.60;;
56581;SDS011;42463;52.214;21.238;2023-08-30T08:57:22;30.80;;;19.40;;
56581;SDS011;42463;52.214;21.238;2023-08-30T08:59:29;26.90;;;18.20;;
56581;SDS011;42463;52.214;21.238;2023-08-30T09:01:35;24.40;;;18.30;;
56581;SDS011;42463;52.214;21.238;2023-08-30T09:03:42;28.00;;;18.20;;
56581;SDS011;42463;52.214;21.238;2023-08-30T09:05:49;26.30;;;18.20;;
56581;SDS011;42463;52.214;21.238;2023-08-30T09:07:55;24.50;;;17.20;;
56581;SDS011;42463;52.214;21.238;2023-08-30T09:10:02;24.70;;;17.70;;
56581;SDS011;42463;52.214;21.238;2023-08-30T09:12:10;25.20;;;17.70;;
56581;SDS011;42463;52.214;21.238;2023-08-30T09:14:17;28.10;;;17.70;;
56581;SDS011;42463;52.214;21.238;2023-08-30T09:16:23;22.40;;;15.10;;
56581;SDS011;42463;52.214;21.238;2023-08-30T09:18:29;19.60;;;13.50;;
56581;SDS011;42463;52.214;21.238;2023-08-30T09:20:35;16.80;;;12.50;;
56581;SDS011;42463;52.214;21.238;2023-08-30T09:22:42;16.40;;;11.90;;
56581;SDS011;42463;52.214;21.238;2023-08-30T09:24:48;17.00;;;12.50;;
56581;SDS011;42463;52.214;21.238;2023-08-30T09:26:55;17.50;;;11.60;;
56581;SDS011;42463;52.214;21.238;2023-08-30T09:29:02;17.90;;;11.40;;
56581;SDS011;42463;52.214;21.238;2023-08-30T09:31:16;14.00;;;10.80;;
56581;SDS011;42463;52.214;21.238;2023-08-30T09:33:29;14.00;;;10.90;;
56581;SDS011;42463;52.214;21.238;2023-08-30T09:35:43;13.90;;;10.30;;
56581;SDS011;42463;52.214;21.238;2023-08-30T09:37:49;12.90;;;10.00;;
56581;SDS011;42463;52.214;21.238;2023-08-30T09:39:55;12.70;;;9.80;;
56581;SDS011;42463;52.214;21.238;2023-08-30T09:42:01;14.30;;;10.50;;
56581;SDS011;42463;52.214;21.238;2023-08-30T09:44:08;14.40;;;10.40;;
56581;SDS011;42463;52.214;21.238;2023-08-30T09:46:15;12.60;;;9.60;;
56581;SDS011;42463;52.214;21.238;2023-08-30T09:48:22;13.60;;;10.10;;
56581;SDS011;42463;52.214;21.238;2023-08-30T09:50:34;13.20;;;10.20;;
56581;SDS011;42463;52.214;21.238;2023-08-30T09:52:41;12.80;;;10.00;;
56581;SDS011;42463;52.214;21.238;2023-08-30T09:54:47;12.50;;;10.30;;
56581;SDS011;42463;52.214;21.238;2023-08-30T09:56:54;11.70;;;9.30;;
56581;SDS011;42463;52.214;21.238;2023-08-30T09:59:01;12.30;;;8.90;;
56581;SDS011;42463;52.214;21.238;2023-08-30T10:01:08;10.50;;;8.00;;
56581;SDS011;42463;52.214;21.238;2023-08-30T10:03:14;9.70;;;7.80;;
56581;SDS011;42463;52.214;21.238;2023-08-30T10:05:21;8.30;;;7.50;;
56581;SDS011;42463;52.214;21.238;2023-08-30T10:07:28;8.80;;;6.70;;
56581;SDS011;42463;52.214;21.238;2023-08-30T10:09:35;10.30;;;6.20;;
56581;SDS011;42463;52.214;21.238;2023-08-30T10:11:43;10.30;;;5.40;;
56581;SDS011;42463;52.214;21.238;2023-08-30T10:13:51;7.00;;;4.40;;
56581;SDS011;42463;52.214;21.238;2023-08-30T10:16:00;9.00;;;4.70;;
56581;SDS011;42463;52.214;21.238;2023-08-30T10:18:07;6.10;;;4.20;;
56581;SDS011;42463;52.214;21.238;2023-08-30T10:20:16;5.90;;;4.50;;
56581;SDS011;42463;52.214;21.238;2023-08-30T10:22:24;7.30;;;3.90;;
56581;SDS011;42463;52.214;21.238;2023-08-30T10:24:31;5.50;;;3.40;;
56581;SDS011;42463;52.214;21.238;2023-08-30T10:26:41;4.90;;;4.00;;
56581;SDS011;42463;52.214;21.238;2023-08-30T10:28:52;7.00;;;3.70;;
56581;SDS011;42463;52.214;21.238;2023-08-30T10:30:59;5.40;;;3.40;;
56581;SDS011;42463;52.214;21.238;2023-08-30T10:33:12;4.20;;;3.50;;
56581;SDS011;42463;52.214;21.238;2023-08-30T10:35:19;5.10;;;3.30;;
56581;SDS011;42463;52.214;21.238;2023-08-30T10:37:27;7.40;;;3.30;;
56581;SDS011;42463;52.214;21.238;2023-08-30T10:39:34;5.30;;;3.30;;
56581;SDS011;42463;52.214;21.238;2023-08-30T10:44:02;6.20;;;3.50;;
56581;SDS011;42463;52.214;21.238;2023-08-30T10:46:08;6.70;;;3.30;;
56581;SDS011;42463;52.214;21.238;2023-08-30T10:48:15;3.40;;;2.90;;
56581;SDS011;42463;52.214;21.238;2023-08-30T10:50:28;3.70;;;2.70;;
56581;SDS011;42463;52.214;21.238;2023-08-30T10:52:35;3.10;;;2.80;;
56581;SDS011;42463;52.214;21.238;2023-08-30T10:54:41;4.30;;;3.30;;
56581;SDS011;42463;52.214;21.238;2023-08-30T10:56:48;3.70;;;2.60;;
56581;SDS011;42463;52.214;21.238;2023-08-30T10:59:03;3.80;;;2.60;;
56581;SDS011;42463;52.214;21.238;2023-08-30T11:01:19;4.20;;;2.80;;
56581;SDS011;42463;52.214;21.238;2023-08-30T11:03:28;3.80;;;2.70;;
56581;SDS011;42463;52.214;21.238;2023-08-30T11:05:34;2.80;;;2.40;;
56581;SDS011;42463;52.214;21.238;2023-08-30T11:07:44;2.80;;;2.50;;
56581;SDS011;42463;52.214;21.238;2023-08-30T11:09:52;2.30;;;2.10;;
56581;SDS011;42463;52.214;21.238;2023-08-30T11:11:59;3.40;;;2.10;;
56581;SDS011;42463;52.214;21.238;2023-08-30T11:14:11;1.80;;;1.60;;
56581;SDS011;42463;52.214;21.238;2023-08-30T11:16:22;3.10;;;2.20;;
56581;SDS011;42463;52.214;21.238;2023-08-30T11:18:29;2.40;;;1.80;;
56581;SDS011;42463;52.214;21.238;2023-08-30T11:20:40;2.90;;;1.90;;
56581;SDS011;42463;52.214;21.238;2023-08-30T11:22:47;2.60;;;2.00;;
56581;SDS011;42463;52.214;21.238;2023-08-30T11:24:56;2.60;;;2.10;;
56581;SDS011;42463;52.214;21.238;2023-08-30T11:27:03;2.80;;;2.00;;
56581;SDS011;42463;52.214;21.238;2023-08-30T11:29:11;3.60;;;2.40;;
56581;SDS011;42463;52.214;21.238;2023-08-30T11:31:21;5.20;;;2.60;;
56581;SDS011;42463;52.214;21.238;2023-08-30T11:33:30;3.30;;;2.40;;
56581;SDS011;42463;52.214;21.238;2023-08-30T11:35:36;2.60;;;2.40;;
56581;SDS011;42463;52.214;21.238;2023-08-30T11:37:43;2.90;;;2.60;;
56581;SDS011;42463;52.214;21.238;2023-08-30T11:39:52;4.70;;;2.70;;
56581;SDS011;42463;52.214;21.238;2023-08-30T11:41:59;5.10;;;2.50;;
56581;SDS011;42463;52.214;21.238;2023-08-30T11:44:08;2.80;;;2.60;;
56581;SDS011;42463;52.214;21.238;2023-08-30T11:46:15;5.50;;;3.10;;
56581;SDS011;42463;52.214;21.238;2023-08-30T11:48:22;4.30;;;3.10;;
56581;SDS011;42463;52.214;21.238;2023-08-30T11:50:29;4.10;;;3.10;;
56581;SDS011;42463;52.214;21.238;2023-08-30T11:52:36;3.90;;;3.00;;
56581;SDS011;42463;52.214;21.238;2023-08-30T11:54:43;4.60;;;3.30;;
56581;SDS011;42463;52.214;21.238;2023-08-30T11:56:49;4.80;;;4.10;;
56581;SDS011;42463;52.214;21.238;2023-08-30T11:58:55;4.90;;;4.10;;
56581;SDS011;42463;52.214;21.238;2023-08-30T12:01:02;5.40;;;4.00;;
56581;SDS011;42463;52.214;21.238;2023-08-30T12:03:09;6.10;;;4.60;;
56581;SDS011;42463;52.214;21.238;2023-08-30T12:05:19;6.00;;;4.20;;
56581;SDS011;42463;52.214;21.238;2023-08-30T12:07:26;6.00;;;5.30;;
56581;SDS011;42463;52.214;21.238;2023-08-30T12:09:32;6.60;;;4.80;;
56581;SDS011;42463;52.214;21.238;2023-08-30T12:11:39;5.90;;;4.70;;
56581;SDS011;42463;52.214;21.238;2023-08-30T12:13:45;6.90;;;5.00;;
56581;SDS011;42463;52.214;21.238;2023-08-30T12:15:52;6.80;;;4.70;;
56581;SDS011;42463;52.214;21.238;2023-08-30T12:18:06;4.80;;;4.30;;
56581;SDS011;42463;52.214;21.238;2023-08-30T12:20:17;6.70;;;5.50;;
56581;SDS011;42463;52.214;21.238;2023-08-30T12:22:36;6.90;;;5.60;;